sensor_id;sensor_type;location;lat;lon;timestamp;P1;durP1;ratioP1;P2;durP2;ratioP2
19301;SDS011;9785;59.362;12.152;2023-03-14T00:01:00;0.40;;;0.40;;
19301;SDS011;9785;59.362;12.152;2023-03-14T00:03:36;0.20;;;0.20;;
19301;SDS011;9785;59.362;12.152;2023-03-14T00:06:06;0.40;;;0.40;;
19301;SDS011;9785;59.362;12.152;2023-03-14T00:08:34;0.23;;;0.23;;
19301;SDS011;9785;59.362;12.152;2023-03-14T00:11:04;0.47;;;0.47;;
19301;SDS011;9785;59.362;12.152;2023-03-14T00:13:33;0.70;;;0.70;;
19301;SDS011;9785;59.362;12.152;2023-03-14T00:16:02;0.60;;;0.60;;
19301;SDS011;9785;59.362;12.152;2023-03-14T00:18:32;0.50;;;0.50;;
19301;SDS011;9785;59.362;12.152;2023-03-14T00:21:03;0.53;;;0.53;;
19301;SDS011;9785;59.362;12.152;2023-03-14T00:23:32;0.70;;;0.70;;
19301;SDS011;9785;59.362;12.152;2023-03-14T00:26:01;0.60;;;0.60;;
19301;SDS011;9785;59.362;12.152;2023-03-14T00:28:30;0.83;;;0.83;;
19301;SDS011;9785;59.362;12.152;2023-03-14T00:31:01;0.80;;;0.80;;
19301;SDS011;9785;59.362;12.152;2023-03-14T00:33:30;0.80;;;0.80;;
19301;SDS011;9785;59.362;12.152;2023-03-14T00:35:59;0.50;;;0.50;;
19301;SDS011;9785;59.362;12.152;2023-03-14T00:38:30;0.70;;;0.70;;
19301;SDS011;9785;59.362;12.152;2023-03-14T00:40:58;0.60;;;0.60;;
19301;SDS011;9785;59.362;12.152;2023-03-14T00:43:27;0.80;;;0.80;;
19301;SDS011;9785;59.362;12.152;2023-03-14T00:45:56;0.90;;;0.90;;
19301;SDS011;9785;59.362;12.152;2023-03-14T00:48:24;0.73;;;0.73;;
19301;SDS011;9785;59.362;12.152;2023-03-14T00:50:53;0.60;;;0.60;;
19301;SDS011;9785;59.362;12.152;2023-03-14T00:53:22;0.70;;;0.70;;
19301;SDS011;9785;59.362;12.152;2023-03-14T00:55:52;0.60;;;0.60;;
19301;SDS011;9785;59.362;12.152;2023-03-14T00:58:20;0.57;;;0.57;;
19301;SDS011;9785;59.362;12.152;2023-03-14T01:00:49;0.80;;;0.80;;
19301;SDS011;9785;59.362;12.152;2023-03-14T01:03:17;0.70;;;0.70;;
19301;SDS011;9785;59.362;12.152;2023-03-14T01:05:46;0.70;;;0.70;;
19301;SDS011;9785;59.362;12.152;2023-03-14T01:08:15;0.63;;;0.63;;
19301;SDS011;9785;59.362;12.152;2023-03-14T01:10:43;0.70;;;0.70;;
19301;SDS011;9785;59.362;12.152;2023-03-14T01:13:14;0.50;;;0.50;;
19301;SDS011;9785;59.362;12.152;2023-03-14T01:15:42;0.60;;;0.60;;
19301;SDS011;9785;59.362;12.152;2023-03-14T01:18:11;0.50;;;0.50;;
19301;SDS011;9785;59.362;12.152;2023-03-14T01:20:39;0.83;;;0.70;;
19301;SDS011;9785;59.362;12.152;2023-03-14T01:23:08;0.50;;;0.50;;
19301;SDS011;9785;59.362;12.152;2023-03-14T01:25:40;1.17;;;1.00;;
19301;SDS011;9785;59.362;12.152;2023-03-14T01:28:09;0.67;;;0.67;;
19301;SDS011;9785;59.362;12.152;2023-03-14T01:30:39;0.80;;;0.80;;
19301;SDS011;9785;59.362;12.152;2023-03-14T01:33:07;0.90;;;0.90;;
19301;SDS011;9785;59.362;12.152;2023-03-14T01:35:37;0.63;;;0.63;;
19301;SDS011;9785;59.362;12.152;2023-03-14T01:38:06;1.13;;;0.90;;
19301;SDS011;9785;59.362;12.152;2023-03-14T01:40:40;1.40;;;0.83;;
19301;SDS011;9785;59.362;12.152;2023-03-14T01:43:13;1.50;;;0.90;;
19301;SDS011;9785;59.362;12.152;2023-03-14T01:48:32;0.93;;;0.93;;
19301;SDS011;9785;59.362;12.152;2023-03-14T01:51:03;0.70;;;0.70;;
19301;SDS011;9785;59.362;12.152;2023-03-14T01:53:33;0.93;;;0.80;;
19301;SDS011;9785;59.362;12.152;2023-03-14T01:56:02;0.90;;;0.90;;
19301;SDS011;9785;59.362;12.152;2023-03-14T01:58:30;1.73;;;1.00;;
19301;SDS011;9785;59.362;12.152;2023-03-14T02:01:02;2.00;;;0.80;;
19301;SDS011;9785;59.362;12.152;2023-03-14T02:03:33;1.03;;;1.03;;
19301;SDS011;9785;59.362;12.152;2023-03-14T02:06:05;1.10;;;1.10;;
19301;SDS011;9785;59.362;12.152;2023-03-14T02:08:34;0.70;;;0.70;;
19301;SDS011;9785;59.362;12.152;2023-03-14T02:11:03;0.80;;;0.80;;
19301;SDS011;9785;59.362;12.152;2023-03-14T02:13:33;0.90;;;0.90;;
19301;SDS011;9785;59.362;12.152;2023-03-14T02:16:02;0.90;;;0.90;;
19301;SDS011;9785;59.362;12.152;2023-03-14T02:18:32;0.73;;;0.73;;
19301;SDS011;9785;59.362;12.152;2023-03-14T02:21:02;0.60;;;0.60;;
19301;SDS011;9785;59.362;12.152;2023-03-14T02:23:35;0.60;;;0.50;;
19301;SDS011;9785;59.362;12.152;2023-03-14T02:26:08;1.07;;;0.97;;
19301;SDS011;9785;59.362;12.152;2023-03-14T02:28:39;1.00;;;0.80;;
19301;SDS011;9785;59.362;12.152;2023-03-14T02:31:08;0.70;;;0.70;;
19301;SDS011;9785;59.362;12.152;2023-03-14T02:33:37;0.80;;;0.80;;
19301;SDS011;9785;59.362;12.152;2023-03-14T02:36:07;0.60;;;0.60;;
19301;SDS011;9785;59.362;12.152;2023-03-14T02:38:39;0.87;;;0.87;;
19301;SDS011;9785;59.362;12.152;2023-03-14T02:41:09;0.90;;;0.80;;
19301;SDS011;9785;59.362;12.152;2023-03-14T02:43:39;0.70;;;0.70;;
19301;SDS011;9785;59.362;12.152;2023-03-14T02:46:08;1.43;;;0.53;;
19301;SDS011;9785;59.362;12.152;2023-03-14T02:48:39;1.07;;;0.90;;
19301;SDS011;9785;59.362;12.152;2023-03-14T02:51:08;0.87;;;0.87;;
19301;SDS011;9785;59.362;12.152;2023-03-14T02:53:37;0.80;;;0.80;;
19301;SDS011;9785;59.362;12.152;2023-03-14T02:56:07;1.20;;;1.10;;
19301;SDS011;9785;59.362;12.152;2023-03-14T02:58:36;0.73;;;0.73;;
19301;SDS011;9785;59.362;12.152;2023-03-14T03:01:06;0.90;;;0.90;;
19301;SDS011;9785;59.362;12.152;2023-03-14T03:03:35;0.97;;;0.97;;
19301;SDS011;9785;59.362;12.152;2023-03-14T03:06:04;1.00;;;1.00;;
19301;SDS011;9785;59.362;12.152;2023-03-14T03:08:33;0.80;;;0.80;;
19301;SDS011;9785;59.362;12.152;2023-03-14T03:11:02;1.20;;;1.20;;
19301;SDS011;9785;59.362;12.152;2023-03-14T03:13:31;1.30;;;1.20;;
19301;SDS011;9785;59.362;12.152;2023-03-14T03:16:00;1.80;;;1.70;;
19301;SDS011;9785;59.362;12.152;2023-03-14T03:18:30;2.27;;;2.07;;
19301;SDS011;9785;59.362;12.152;2023-03-14T03:20:59;2.23;;;2.10;;
19301;SDS011;9785;59.362;12.152;2023-03-14T03:23:28;1.77;;;1.67;;
19301;SDS011;9785;59.362;12.152;2023-03-14T03:25:56;1.50;;;1.50;;
19301;SDS011;9785;59.362;12.152;2023-03-14T03:28:25;1.20;;;1.10;;
19301;SDS011;9785;59.362;12.152;2023-03-14T03:30:54;2.27;;;1.37;;
19301;SDS011;9785;59.362;12.152;2023-03-14T03:33:22;1.20;;;1.20;;
19301;SDS011;9785;59.362;12.152;2023-03-14T03:35:52;1.00;;;1.00;;
19301;SDS011;9785;59.362;12.152;2023-03-14T03:38:21;1.10;;;1.10;;
19301;SDS011;9785;59.362;12.152;2023-03-14T03:40:49;1.07;;;1.00;;
19301;SDS011;9785;59.362;12.152;2023-03-14T03:43:18;1.10;;;1.10;;
19301;SDS011;9785;59.362;12.152;2023-03-14T03:45:47;1.00;;;1.00;;
19301;SDS011;9785;59.362;12.152;2023-03-14T03:48:15;1.07;;;1.03;;
19301;SDS011;9785;59.362;12.152;2023-03-14T03:50:44;1.00;;;1.00;;
19301;SDS011;9785;59.362;12.152;2023-03-14T03:53:14;2.40;;;1.10;;
19301;SDS011;9785;59.362;12.152;2023-03-14T03:55:58;1.37;;;1.27;;
19301;SDS011;9785;59.362;12.152;2023-03-14T03:58:27;1.10;;;1.10;;
19301;SDS011;9785;59.362;12.152;2023-03-14T04:00:55;1.27;;;1.17;;
19301;SDS011;9785;59.362;12.152;2023-03-14T04:03:24;1.20;;;1.20;;
19301;SDS011;9785;59.362;12.152;2023-03-14T04:06:00;1.00;;;1.00;;
19301;SDS011;9785;59.362;12.152;2023-03-14T04:08:30;1.10;;;1.10;;
19301;SDS011;9785;59.362;12.152;2023-03-14T04:10:59;1.20;;;1.10;;
19301;SDS011;9785;59.362;12.152;2023-03-14T04:13:28;1.00;;;1.00;;
19301;SDS011;9785;59.362;12.152;2023-03-14T04:15:57;1.27;;;1.17;;
19301;SDS011;9785;59.362;12.152;2023-03-14T04:18:26;1.17;;;1.10;;
19301;SDS011;9785;59.362;12.152;2023-03-14T04:20:57;1.10;;;1.10;;
19301;SDS011;9785;59.362;12.152;2023-03-14T04:23:26;1.90;;;1.37;;
19301;SDS011;9785;59.362;12.152;2023-03-14T04:25:56;0.97;;;0.97;;
19301;SDS011;9785;59.362;12.152;2023-03-14T04:28:24;1.10;;;1.10;;
19301;SDS011;9785;59.362;12.152;2023-03-14T04:30:53;1.33;;;1.23;;
19301;SDS011;9785;59.362;12.152;2023-03-14T04:33:22;0.97;;;0.97;;
19301;SDS011;9785;59.362;12.152;2023-03-14T04:35:52;1.33;;;1.30;;
19301;SDS011;9785;59.362;12.152;2023-03-14T04:38:22;1.40;;;1.30;;
19301;SDS011;9785;59.362;12.152;2023-03-14T04:40:50;1.23;;;1.23;;
19301;SDS011;9785;59.362;12.152;2023-03-14T04:43:20;1.50;;;1.40;;
19301;SDS011;9785;59.362;12.152;2023-03-14T04:45:49;1.40;;;1.30;;
19301;SDS011;9785;59.362;12.152;2023-03-14T04:48:17;1.60;;;1.50;;
19301;SDS011;9785;59.362;12.152;2023-03-14T04:50:46;1.33;;;1.30;;
19301;SDS011;9785;59.362;12.152;2023-03-14T04:53:15;1.10;;;1.10;;
19301;SDS011;9785;59.362;12.152;2023-03-14T04:55:47;2.77;;;1.40;;
19301;SDS011;9785;59.362;12.152;2023-03-14T04:58:15;1.33;;;1.23;;
19301;SDS011;9785;59.362;12.152;2023-03-14T05:00:45;1.70;;;1.60;;
19301;SDS011;9785;59.362;12.152;2023-03-14T05:03:14;3.10;;;1.10;;
19301;SDS011;9785;59.362;12.152;2023-03-14T05:05:43;1.60;;;1.50;;
19301;SDS011;9785;59.362;12.152;2023-03-14T05:08:12;1.70;;;1.60;;
19301;SDS011;9785;59.362;12.152;2023-03-14T05:10:40;1.40;;;1.40;;
19301;SDS011;9785;59.362;12.152;2023-03-14T05:13:09;1.77;;;1.37;;
19301;SDS011;9785;59.362;12.152;2023-03-14T05:15:37;1.70;;;1.50;;
19301;SDS011;9785;59.362;12.152;2023-03-14T05:18:07;1.40;;;1.30;;
19301;SDS011;9785;59.362;12.152;2023-03-14T05:20:36;1.57;;;1.47;;
19301;SDS011;9785;59.362;12.152;2023-03-14T05:23:04;1.67;;;1.50;;
19301;SDS011;9785;59.362;12.152;2023-03-14T05:25:33;1.43;;;1.33;;
19301;SDS011;9785;59.362;12.152;2023-03-14T05:28:01;1.20;;;1.20;;
19301;SDS011;9785;59.362;12.152;2023-03-14T05:30:30;1.73;;;1.63;;
19301;SDS011;9785;59.362;12.152;2023-03-14T05:33:00;1.53;;;1.40;;
19301;SDS011;9785;59.362;12.152;2023-03-14T05:35:30;1.60;;;1.50;;
19301;SDS011;9785;59.362;12.152;2023-03-14T05:37:58;1.57;;;1.47;;
19301;SDS011;9785;59.362;12.152;2023-03-14T05:40:27;1.63;;;1.53;;
19301;SDS011;9785;59.362;12.152;2023-03-14T05:42:55;1.53;;;1.43;;
19301;SDS011;9785;59.362;12.152;2023-03-14T05:45:26;1.90;;;1.57;;
19301;SDS011;9785;59.362;12.152;2023-03-14T05:47:55;1.13;;;1.13;;
19301;SDS011;9785;59.362;12.152;2023-03-14T05:50:24;1.53;;;1.40;;
19301;SDS011;9785;59.362;12.152;2023-03-14T05:52:54;1.53;;;1.30;;
19301;SDS011;9785;59.362;12.152;2023-03-14T05:55:22;1.40;;;1.30;;
19301;SDS011;9785;59.362;12.152;2023-03-14T05:57:51;2.03;;;1.20;;
19301;SDS011;9785;59.362;12.152;2023-03-14T06:00:21;3.13;;;1.40;;
19301;SDS011;9785;59.362;12.152;2023-03-14T06:02:50;1.10;;;1.10;;
19301;SDS011;9785;59.362;12.152;2023-03-14T06:05:18;1.73;;;1.13;;
19301;SDS011;9785;59.362;12.152;2023-03-14T06:07:47;1.40;;;1.30;;
19301;SDS011;9785;59.362;12.152;2023-03-14T06:10:20;1.50;;;1.40;;
19301;SDS011;9785;59.362;12.152;2023-03-14T06:12:48;0.83;;;0.83;;
19301;SDS011;9785;59.362;12.152;2023-03-14T06:15:17;1.17;;;1.00;;
19301;SDS011;9785;59.362;12.152;2023-03-14T06:17:45;1.30;;;1.20;;
19301;SDS011;9785;59.362;12.152;2023-03-14T06:20:14;1.00;;;1.00;;
19301;SDS011;9785;59.362;12.152;2023-03-14T06:22:42;1.30;;;1.20;;
19301;SDS011;9785;59.362;12.152;2023-03-14T06:25:11;1.07;;;0.93;;
19301;SDS011;9785;59.362;12.152;2023-03-14T06:27:41;1.13;;;0.90;;
19301;SDS011;9785;59.362;12.152;2023-03-14T06:30:10;1.50;;;1.07;;
19301;SDS011;9785;59.362;12.152;2023-03-14T06:32:39;3.33;;;1.07;;
19301;SDS011;9785;59.362;12.152;2023-03-14T06:35:08;0.90;;;0.90;;
19301;SDS011;9785;59.362;12.152;2023-03-14T06:37:36;0.90;;;0.90;;
19301;SDS011;9785;59.362;12.152;2023-03-14T06:40:05;0.97;;;0.90;;
19301;SDS011;9785;59.362;12.152;2023-03-14T06:42:35;0.93;;;0.93;;
19301;SDS011;9785;59.362;12.152;2023-03-14T06:45:05;1.07;;;0.90;;
19301;SDS011;9785;59.362;12.152;2023-03-14T06:47:34;1.10;;;1.00;;
19301;SDS011;9785;59.362;12.152;2023-03-14T06:50:05;1.10;;;1.00;;
19301;SDS011;9785;59.362;12.152;2023-03-14T06:52:33;1.00;;;1.00;;
19301;SDS011;9785;59.362;12.152;2023-03-14T06:55:02;2.27;;;1.00;;
19301;SDS011;9785;59.362;12.152;2023-03-14T06:57:31;0.90;;;0.90;;
19301;SDS011;9785;59.362;12.152;2023-03-14T07:00:00;2.10;;;0.93;;
19301;SDS011;9785;59.362;12.152;2023-03-14T07:02:30;0.80;;;0.80;;
19301;SDS011;9785;59.362;12.152;2023-03-14T07:05:08;0.90;;;0.90;;
19301;SDS011;9785;59.362;12.152;2023-03-14T07:07:37;0.80;;;0.80;;
19301;SDS011;9785;59.362;12.152;2023-03-14T07:10:06;1.20;;;0.70;;
19301;SDS011;9785;59.362;12.152;2023-03-14T07:12:36;1.03;;;1.03;;
19301;SDS011;9785;59.362;12.152;2023-03-14T07:15:04;1.40;;;0.90;;
19301;SDS011;9785;59.362;12.152;2023-03-14T07:17:45;0.83;;;0.83;;
19301;SDS011;9785;59.362;12.152;2023-03-14T07:20:15;0.70;;;0.70;;
19301;SDS011;9785;59.362;12.152;2023-03-14T07:22:43;0.80;;;0.80;;
19301;SDS011;9785;59.362;12.152;2023-03-14T07:25:12;0.70;;;0.70;;
19301;SDS011;9785;59.362;12.152;2023-03-14T07:27:42;0.80;;;0.80;;
19301;SDS011;9785;59.362;12.152;2023-03-14T07:30:11;0.60;;;0.60;;
19301;SDS011;9785;59.362;12.152;2023-03-14T07:32:40;0.53;;;0.53;;
19301;SDS011;9785;59.362;12.152;2023-03-14T07:35:10;0.97;;;0.70;;
19301;SDS011;9785;59.362;12.152;2023-03-14T07:37:38;1.17;;;0.67;;
19301;SDS011;9785;59.362;12.152;2023-03-14T07:40:07;0.60;;;0.60;;
19301;SDS011;9785;59.362;12.152;2023-03-14T07:42:38;1.17;;;0.60;;
19301;SDS011;9785;59.362;12.152;2023-03-14T07:45:07;2.47;;;0.60;;
19301;SDS011;9785;59.362;12.152;2023-03-14T07:47:37;0.50;;;0.40;;
19301;SDS011;9785;59.362;12.152;2023-03-14T07:50:06;0.53;;;0.50;;
19301;SDS011;9785;59.362;12.152;2023-03-14T07:52:37;0.60;;;0.60;;
19301;SDS011;9785;59.362;12.152;2023-03-14T07:55:06;0.50;;;0.50;;
19301;SDS011;9785;59.362;12.152;2023-03-14T07:57:34;0.40;;;0.40;;
19301;SDS011;9785;59.362;12.152;2023-03-14T08:00:03;0.67;;;0.37;;
19301;SDS011;9785;59.362;12.152;2023-03-14T08:02:32;0.33;;;0.33;;
19301;SDS011;9785;59.362;12.152;2023-03-14T08:05:02;0.50;;;0.50;;
19301;SDS011;9785;59.362;12.152;2023-03-14T08:07:31;0.30;;;0.30;;
19301;SDS011;9785;59.362;12.152;2023-03-14T08:10:01;0.47;;;0.47;;
19301;SDS011;9785;59.362;12.152;2023-03-14T08:12:30;0.50;;;0.50;;
19301;SDS011;9785;59.362;12.152;2023-03-14T08:14:58;0.77;;;0.40;;
19301;SDS011;9785;59.362;12.152;2023-03-14T08:17:27;0.40;;;0.40;;
19301;SDS011;9785;59.362;12.152;2023-03-14T08:19:55;0.47;;;0.40;;
19301;SDS011;9785;59.362;12.152;2023-03-14T08:22:24;0.40;;;0.40;;
19301;SDS011;9785;59.362;12.152;2023-03-14T08:24:52;1.53;;;0.30;;
19301;SDS011;9785;59.362;12.152;2023-03-14T08:27:22;0.47;;;0.47;;
19301;SDS011;9785;59.362;12.152;2023-03-14T08:29:51;0.83;;;0.43;;
19301;SDS011;9785;59.362;12.152;2023-03-14T08:32:20;0.50;;;0.50;;
19301;SDS011;9785;59.362;12.152;2023-03-14T08:34:50;0.30;;;0.30;;
19301;SDS011;9785;59.362;12.152;2023-03-14T08:37:18;0.53;;;0.40;;
19301;SDS011;9785;59.362;12.152;2023-03-14T08:39:52;1.17;;;0.43;;
19301;SDS011;9785;59.362;12.152;2023-03-14T08:42:22;0.30;;;0.30;;
19301;SDS011;9785;59.362;12.152;2023-03-14T08:44:51;0.27;;;0.23;;
19301;SDS011;9785;59.362;12.152;2023-03-14T08:47:21;0.20;;;0.20;;
19301;SDS011;9785;59.362;12.152;2023-03-14T08:49:49;0.30;;;0.30;;
19301;SDS011;9785;59.362;12.152;2023-03-14T08:52:18;0.40;;;0.40;;
19301;SDS011;9785;59.362;12.152;2023-03-14T08:54:46;0.30;;;0.30;;
19301;SDS011;9785;59.362;12.152;2023-03-14T08:57:15;0.40;;;0.40;;
19301;SDS011;9785;59.362;12.152;2023-03-14T08:59:45;0.30;;;0.30;;
19301;SDS011;9785;59.362;12.152;2023-03-14T09:02:14;0.20;;;0.20;;
19301;SDS011;9785;59.362;12.152;2023-03-14T09:04:42;0.80;;;0.30;;
19301;SDS011;9785;59.362;12.152;2023-03-14T09:07:11;0.20;;;0.20;;
19301;SDS011;9785;59.362;12.152;2023-03-14T09:09:39;0.20;;;0.20;;
19301;SDS011;9785;59.362;12.152;2023-03-14T09:12:08;0.10;;;0.10;;
19301;SDS011;9785;59.362;12.152;2023-03-14T09:14:37;0.20;;;0.20;;
19301;SDS011;9785;59.362;12.152;2023-03-14T09:17:07;0.20;;;0.20;;
19301;SDS011;9785;59.362;12.152;2023-03-14T09:19:35;0.20;;;0.20;;
19301;SDS011;9785;59.362;12.152;2023-03-14T09:22:04;0.20;;;0.20;;
19301;SDS011;9785;59.362;12.152;2023-03-14T09:24:32;0.20;;;0.20;;
19301;SDS011;9785;59.362;12.152;2023-03-14T09:27:01;0.10;;;0.10;;
19301;SDS011;9785;59.362;12.152;2023-03-14T09:29:30;0.17;;;0.17;;
19301;SDS011;9785;59.362;12.152;2023-03-14T09:31:58;0.20;;;0.20;;
19301;SDS011;9785;59.362;12.152;2023-03-14T09:34:28;0.20;;;0.20;;
19301;SDS011;9785;59.362;12.152;2023-03-14T09:36:57;0.83;;;0.20;;
19301;SDS011;9785;59.362;12.152;2023-03-14T09:39:26;0.13;;;0.10;;
19301;SDS011;9785;59.362;12.152;2023-03-14T09:41:54;0.13;;;0.13;;
19301;SDS011;9785;59.362;12.152;2023-03-14T09:44:25;0.10;;;0.10;;
19301;SDS011;9785;59.362;12.152;2023-03-14T09:46:56;0.83;;;0.20;;
19301;SDS011;9785;59.362;12.152;2023-03-14T09:49:27;0.10;;;0.10;;
19301;SDS011;9785;59.362;12.152;2023-03-14T09:51:58;0.23;;;0.10;;
19301;SDS011;9785;59.362;12.152;2023-03-14T09:54:30;0.10;;;0.10;;
19301;SDS011;9785;59.362;12.152;2023-03-14T09:56:59;0.20;;;0.20;;
19301;SDS011;9785;59.362;12.152;2023-03-14T09:59:28;0.20;;;0.20;;
19301;SDS011;9785;59.362;12.152;2023-03-14T10:01:58;0.30;;;0.30;;
19301;SDS011;9785;59.362;12.152;2023-03-14T10:04:28;0.10;;;0.10;;
19301;SDS011;9785;59.362;12.152;2023-03-14T10:07:00;0.10;;;0.10;;
19301;SDS011;9785;59.362;12.152;2023-03-14T10:09:30;0.00;;;0.00;;
19301;SDS011;9785;59.362;12.152;2023-03-14T10:11:59;0.00;;;0.00;;
19301;SDS011;9785;59.362;12.152;2023-03-14T10:14:35;1.00;;;0.23;;
19301;SDS011;9785;59.362;12.152;2023-03-14T10:17:05;0.10;;;0.10;;
19301;SDS011;9785;59.362;12.152;2023-03-14T10:19:35;0.67;;;0.10;;
19301;SDS011;9785;59.362;12.152;2023-03-14T10:22:05;0.20;;;0.10;;
19301;SDS011;9785;59.362;12.152;2023-03-14T10:24:34;0.20;;;0.10;;
19301;SDS011;9785;59.362;12.152;2023-03-14T10:27:04;0.10;;;0.10;;
19301;SDS011;9785;59.362;12.152;2023-03-14T10:29:33;0.10;;;0.10;;
19301;SDS011;9785;59.362;12.152;2023-03-14T10:32:02;0.30;;;0.10;;
19301;SDS011;9785;59.362;12.152;2023-03-14T10:34:32;0.20;;;0.20;;
19301;SDS011;9785;59.362;12.152;2023-03-14T10:37:05;0.10;;;0.10;;
19301;SDS011;9785;59.362;12.152;2023-03-14T10:39:42;1.27;;;0.20;;
19301;SDS011;9785;59.362;12.152;2023-03-14T10:42:15;0.10;;;0.10;;
19301;SDS011;9785;59.362;12.152;2023-03-14T10:44:46;0.10;;;0.10;;
19301;SDS011;9785;59.362;12.152;2023-03-14T10:47:17;0.10;;;0.10;;
19301;SDS011;9785;59.362;12.152;2023-03-14T10:49:46;0.10;;;0.10;;
19301;SDS011;9785;59.362;12.152;2023-03-14T10:52:18;0.73;;;0.20;;
19301;SDS011;9785;59.362;12.152;2023-03-14T10:55:03;0.93;;;0.20;;
19301;SDS011;9785;59.362;12.152;2023-03-14T10:57:32;0.57;;;0.10;;
19301;SDS011;9785;59.362;12.152;2023-03-14T11:00:09;0.10;;;0.10;;
19301;SDS011;9785;59.362;12.152;2023-03-14T11:02:41;0.40;;;0.10;;
19301;SDS011;9785;59.362;12.152;2023-03-14T11:05:17;0.20;;;0.20;;
19301;SDS011;9785;59.362;12.152;2023-03-14T11:07:49;0.20;;;0.20;;
19301;SDS011;9785;59.362;12.152;2023-03-14T11:10:23;1.43;;;0.10;;
19301;SDS011;9785;59.362;12.152;2023-03-14T11:12:56;0.10;;;0.10;;
19301;SDS011;9785;59.362;12.152;2023-03-14T11:15:34;0.20;;;0.20;;
19301;SDS011;9785;59.362;12.152;2023-03-14T11:18:17;0.10;;;0.10;;
19301;SDS011;9785;59.362;12.152;2023-03-14T11:20:49;2.73;;;0.20;;
19301;SDS011;9785;59.362;12.152;2023-03-14T11:23:21;0.10;;;0.10;;
19301;SDS011;9785;59.362;12.152;2023-03-14T11:25:54;0.20;;;0.20;;
19301;SDS011;9785;59.362;12.152;2023-03-14T11:28:26;0.10;;;0.10;;
19301;SDS011;9785;59.362;12.152;2023-03-14T11:30:59;3.30;;;0.20;;
19301;SDS011;9785;59.362;12.152;2023-03-14T11:33:30;0.20;;;0.20;;
19301;SDS011;9785;59.362;12.152;2023-03-14T11:36:03;0.30;;;0.10;;
19301;SDS011;9785;59.362;12.152;2023-03-14T11:38:34;1.17;;;0.20;;
19301;SDS011;9785;59.362;12.152;2023-03-14T11:41:10;2.47;;;0.23;;
19301;SDS011;9785;59.362;12.152;2023-03-14T11:43:40;0.30;;;0.10;;
19301;SDS011;9785;59.362;12.152;2023-03-14T11:46:10;0.17;;;0.17;;
19301;SDS011;9785;59.362;12.152;2023-03-14T11:48:44;0.00;;;0.00;;
19301;SDS011;9785;59.362;12.152;2023-03-14T11:51:15;0.87;;;0.10;;
19301;SDS011;9785;59.362;12.152;2023-03-14T11:53:48;3.83;;;0.40;;
19301;SDS011;9785;59.362;12.152;2023-03-14T11:56:22;0.50;;;0.10;;
19301;SDS011;9785;59.362;12.152;2023-03-14T11:58:55;0.10;;;0.10;;
19301;SDS011;9785;59.362;12.152;2023-03-14T12:01:25;0.77;;;0.20;;
19301;SDS011;9785;59.362;12.152;2023-03-14T12:03:56;0.40;;;0.10;;
19301;SDS011;9785;59.362;12.152;2023-03-14T12:06:30;0.47;;;0.20;;
19301;SDS011;9785;59.362;12.152;2023-03-14T12:09:00;0.40;;;0.10;;
19301;SDS011;9785;59.362;12.152;2023-03-14T12:11:35;0.10;;;0.10;;
19301;SDS011;9785;59.362;12.152;2023-03-14T12:14:17;2.63;;;0.20;;
19301;SDS011;9785;59.362;12.152;2023-03-14T12:16:47;0.50;;;0.20;;
19301;SDS011;9785;59.362;12.152;2023-03-14T12:19:26;0.10;;;0.10;;
19301;SDS011;9785;59.362;12.152;2023-03-14T12:21:56;0.97;;;0.20;;
19301;SDS011;9785;59.362;12.152;2023-03-14T12:24:26;0.53;;;0.20;;
19301;SDS011;9785;59.362;12.152;2023-03-14T12:27:00;2.87;;;0.17;;
19301;SDS011;9785;59.362;12.152;2023-03-14T12:29:28;0.30;;;0.10;;
19301;SDS011;9785;59.362;12.152;2023-03-14T12:32:07;0.20;;;0.10;;
19301;SDS011;9785;59.362;12.152;2023-03-14T12:34:38;0.20;;;0.20;;
19301;SDS011;9785;59.362;12.152;2023-03-14T12:37:17;0.30;;;0.20;;
19301;SDS011;9785;59.362;12.152;2023-03-14T12:39:47;2.33;;;0.40;;
19301;SDS011;9785;59.362;12.152;2023-03-14T12:42:21;0.40;;;0.20;;
19301;SDS011;9785;59.362;12.152;2023-03-14T12:45:13;0.20;;;0.10;;
19301;SDS011;9785;59.362;12.152;2023-03-14T12:47:50;0.20;;;0.20;;
19301;SDS011;9785;59.362;12.152;2023-03-14T12:50:20;0.30;;;0.30;;
19301;SDS011;9785;59.362;12.152;2023-03-14T12:52:53;1.37;;;0.20;;
19301;SDS011;9785;59.362;12.152;2023-03-14T12:55:26;1.77;;;0.27;;
19301;SDS011;9785;59.362;12.152;2023-03-14T12:57:59;0.20;;;0.20;;
19301;SDS011;9785;59.362;12.152;2023-03-14T13:00:30;0.67;;;0.40;;
19301;SDS011;9785;59.362;12.152;2023-03-14T13:03:00;0.83;;;0.20;;
19301;SDS011;9785;59.362;12.152;2023-03-14T13:05:30;0.20;;;0.10;;
19301;SDS011;9785;59.362;12.152;2023-03-14T13:08:03;0.40;;;0.20;;
19301;SDS011;9785;59.362;12.152;2023-03-14T13:10:38;0.20;;;0.20;;
19301;SDS011;9785;59.362;12.152;2023-03-14T13:13:14;0.40;;;0.20;;
19301;SDS011;9785;59.362;12.152;2023-03-14T13:15:44;0.20;;;0.20;;
19301;SDS011;9785;59.362;12.152;2023-03-14T13:18:16;0.57;;;0.20;;
19301;SDS011;9785;59.362;12.152;2023-03-14T13:20:46;3.43;;;0.30;;
19301;SDS011;9785;59.362;12.152;2023-03-14T13:23:20;3.23;;;0.30;;
19301;SDS011;9785;59.362;12.152;2023-03-14T13:25:49;0.43;;;0.20;;
19301;SDS011;9785;59.362;12.152;2023-03-14T13:28:19;1.13;;;0.20;;
19301;SDS011;9785;59.362;12.152;2023-03-14T13:30:48;0.43;;;0.40;;
19301;SDS011;9785;59.362;12.152;2023-03-14T13:33:18;0.30;;;0.30;;
19301;SDS011;9785;59.362;12.152;2023-03-14T13:35:48;1.60;;;0.20;;
19301;SDS011;9785;59.362;12.152;2023-03-14T13:38:17;2.80;;;0.30;;
19301;SDS011;9785;59.362;12.152;2023-03-14T13:40:46;0.20;;;0.20;;
19301;SDS011;9785;59.362;12.152;2023-03-14T13:43:17;0.47;;;0.30;;
19301;SDS011;9785;59.362;12.152;2023-03-14T13:45:50;1.83;;;0.23;;
19301;SDS011;9785;59.362;12.152;2023-03-14T13:48:19;0.47;;;0.10;;
19301;SDS011;9785;59.362;12.152;2023-03-14T13:50:51;0.47;;;0.27;;
19301;SDS011;9785;59.362;12.152;2023-03-14T13:53:21;0.13;;;0.13;;
19301;SDS011;9785;59.362;12.152;2023-03-14T13:55:52;0.43;;;0.30;;
19301;SDS011;9785;59.362;12.152;2023-03-14T13:58:22;1.03;;;0.30;;
19301;SDS011;9785;59.362;12.152;2023-03-14T14:01:03;1.30;;;0.20;;
19301;SDS011;9785;59.362;12.152;2023-03-14T14:03:34;0.20;;;0.20;;
19301;SDS011;9785;59.362;12.152;2023-03-14T14:06:06;1.00;;;0.13;;
19301;SDS011;9785;59.362;12.152;2023-03-14T14:08:39;0.77;;;0.07;;
19301;SDS011;9785;59.362;12.152;2023-03-14T14:11:08;0.27;;;0.13;;
19301;SDS011;9785;59.362;12.152;2023-03-14T14:13:41;0.30;;;0.10;;
19301;SDS011;9785;59.362;12.152;2023-03-14T14:16:11;0.13;;;0.10;;
19301;SDS011;9785;59.362;12.152;2023-03-14T14:18:40;0.17;;;0.10;;
19301;SDS011;9785;59.362;12.152;2023-03-14T14:21:09;0.63;;;0.10;;
19301;SDS011;9785;59.362;12.152;2023-03-14T14:23:39;0.10;;;0.10;;
19301;SDS011;9785;59.362;12.152;2023-03-14T14:26:07;0.20;;;0.10;;
19301;SDS011;9785;59.362;12.152;2023-03-14T14:28:36;0.10;;;0.10;;
19301;SDS011;9785;59.362;12.152;2023-03-14T14:31:18;1.43;;;0.10;;
19301;SDS011;9785;59.362;12.152;2023-03-14T14:33:53;1.07;;;0.30;;
19301;SDS011;9785;59.362;12.152;2023-03-14T14:36:23;0.53;;;0.20;;
19301;SDS011;9785;59.362;12.152;2023-03-14T14:38:53;0.20;;;0.10;;
19301;SDS011;9785;59.362;12.152;2023-03-14T14:41:21;2.20;;;0.20;;
19301;SDS011;9785;59.362;12.152;2023-03-14T14:43:54;2.00;;;0.30;;
19301;SDS011;9785;59.362;12.152;2023-03-14T14:46:25;0.17;;;0.10;;
19301;SDS011;9785;59.362;12.152;2023-03-14T14:48:55;0.30;;;0.30;;
19301;SDS011;9785;59.362;12.152;2023-03-14T14:51:25;0.97;;;0.17;;
19301;SDS011;9785;59.362;12.152;2023-03-14T14:54:03;0.87;;;0.23;;
19301;SDS011;9785;59.362;12.152;2023-03-14T14:56:35;0.30;;;0.20;;
19301;SDS011;9785;59.362;12.152;2023-03-14T14:59:04;0.10;;;0.10;;
19301;SDS011;9785;59.362;12.152;2023-03-14T15:01:35;0.30;;;0.30;;
19301;SDS011;9785;59.362;12.152;2023-03-14T15:04:09;0.30;;;0.13;;
19301;SDS011;9785;59.362;12.152;2023-03-14T15:06:38;0.17;;;0.10;;
19301;SDS011;9785;59.362;12.152;2023-03-14T15:09:08;0.10;;;0.10;;